sensor_id;sensor_type;location;lat;lon;timestamp;P1;durP1;ratioP1;P2;durP2;ratioP2
15398;SDS011;7797;51.428;6.756;2023-08-21T14:40:32;6.85;;;3.22;;
15398;SDS011;7797;51.428;6.756;2023-08-21T14:42:59;5.93;;;2.90;;
15398;SDS011;7797;51.428;6.756;2023-08-21T14:45:26;5.75;;;3.35;;
15398;SDS011;7797;51.428;6.756;2023-08-21T14:47:53;5.55;;;3.25;;
15398;SDS011;7797;51.428;6.756;2023-08-21T14:50:20;4.00;;;3.40;;
15398;SDS011;7797;51.428;6.756;2023-08-21T14:52:47;6.45;;;2.90;;
15398;SDS011;7797;51.428;6.756;2023-08-21T14:55:14;5.93;;;3.10;;
15398;SDS011;7797;51.428;6.756;2023-08-21T14:57:41;4.28;;;2.90;;
15398;SDS011;7797;51.428;6.756;2023-08-21T15:00:11;4.80;;;2.88;;
15398;SDS011;7797;51.428;6.756;2023-08-21T15:02:39;5.45;;;3.25;;
15398;SDS011;7797;51.428;6.756;2023-08-21T15:05:09;4.65;;;2.92;;
15398;SDS011;7797;51.428;6.756;2023-08-21T15:07:36;4.35;;;3.08;;
15398;SDS011;7797;51.428;6.756;2023-08-21T15:10:04;6.35;;;3.08;;
15398;SDS011;7797;51.428;6.756;2023-08-21T15:12:31;4.45;;;2.80;;
15398;SDS011;7797;51.428;6.756;2023-08-21T15:14:58;6.43;;;3.35;;
15398;SDS011;7797;51.428;6.756;2023-08-21T15:17:25;3.25;;;2.80;;
15398;SDS011;7797;51.428;6.756;2023-08-21T15:19:52;4.35;;;3.08;;
15398;SDS011;7797;51.428;6.756;2023-08-21T15:22:19;4.00;;;3.47;;
15398;SDS011;7797;51.428;6.756;2023-08-21T15:24:47;6.90;;;3.38;;
15398;SDS011;7797;51.428;6.756;2023-08-21T15:27:14;4.35;;;3.17;;
15398;SDS011;7797;51.428;6.756;2023-08-21T15:29:42;5.95;;;3.53;;
15398;SDS011;7797;51.428;6.756;2023-08-21T15:32:09;6.07;;;3.60;;
15398;SDS011;7797;51.428;6.756;2023-08-21T15:34:36;6.18;;;3.40;;
15398;SDS011;7797;51.428;6.756;2023-08-21T15:37:03;4.05;;;3.65;;
15398;SDS011;7797;51.428;6.756;2023-08-21T15:39:30;6.03;;;3.72;;
15398;SDS011;7797;51.428;6.756;2023-08-21T15:41:57;4.65;;;3.53;;
15398;SDS011;7797;51.428;6.756;2023-08-21T15:44:28;6.55;;;3.30;;
15398;SDS011;7797;51.428;6.756;2023-08-21T15:47:00;5.43;;;3.30;;
15398;SDS011;7797;51.428;6.756;2023-08-21T15:49:47;4.38;;;3.00;;
15398;SDS011;7797;51.428;6.756;2023-08-21T15:52:14;4.53;;;3.28;;
15398;SDS011;7797;51.428;6.756;2023-08-21T15:54:41;3.78;;;3.05;;
15398;SDS011;7797;51.428;6.756;2023-08-21T15:57:07;5.22;;;2.63;;
15398;SDS011;7797;51.428;6.756;2023-08-21T15:59:34;2.60;;;2.38;;
15398;SDS011;7797;51.428;6.756;2023-08-21T16:02:01;4.45;;;2.70;;
15398;SDS011;7797;51.428;6.756;2023-08-21T16:04:30;2.80;;;2.60;;
15398;SDS011;7797;51.428;6.756;2023-08-21T16:07:20;2.90;;;2.60;;
15398;SDS011;7797;51.428;6.756;2023-08-21T16:09:47;3.00;;;2.80;;
15398;SDS011;7797;51.428;6.756;2023-08-21T16:12:14;5.45;;;2.97;;
15398;SDS011;7797;51.428;6.756;2023-08-21T16:14:41;4.78;;;2.97;;
15398;SDS011;7797;51.428;6.756;2023-08-21T16:17:08;2.90;;;2.60;;
15398;SDS011;7797;51.428;6.756;2023-08-21T16:19:35;3.00;;;2.60;;
15398;SDS011;7797;51.428;6.756;2023-08-21T16:22:02;3.58;;;2.65;;
15398;SDS011;7797;51.428;6.756;2023-08-21T16:24:29;4.57;;;2.95;;
15398;SDS011;7797;51.428;6.756;2023-08-21T16:26:56;3.15;;;2.70;;
15398;SDS011;7797;51.428;6.756;2023-08-21T16:29:23;5.93;;;2.33;;
15398;SDS011;7797;51.428;6.756;2023-08-21T16:31:50;3.17;;;2.80;;
15398;SDS011;7797;51.428;6.756;2023-08-21T16:34:17;3.47;;;2.58;;
15398;SDS011;7797;51.428;6.756;2023-08-21T16:36:44;2.60;;;2.40;;
15398;SDS011;7797;51.428;6.756;2023-08-21T16:39:11;4.05;;;2.30;;
15398;SDS011;7797;51.428;6.756;2023-08-21T16:41:38;2.97;;;2.25;;
15398;SDS011;7797;51.428;6.756;2023-08-21T16:44:05;3.67;;;2.25;;
15398;SDS011;7797;51.428;6.756;2023-08-21T16:46:32;6.00;;;2.45;;
15398;SDS011;7797;51.428;6.756;2023-08-21T16:48:59;4.25;;;2.50;;
15398;SDS011;7797;51.428;6.756;2023-08-21T16:51:26;3.63;;;2.50;;
15398;SDS011;7797;51.428;6.756;2023-08-21T16:53:53;2.60;;;2.40;;
15398;SDS011;7797;51.428;6.756;2023-08-21T16:56:20;3.53;;;2.50;;
15398;SDS011;7797;51.428;6.756;2023-08-21T16:58:47;3.90;;;2.97;;
15398;SDS011;7797;51.428;6.756;2023-08-21T17:01:13;5.10;;;2.60;;
15398;SDS011;7797;51.428;6.756;2023-08-21T17:03:40;3.10;;;2.40;;
15398;SDS011;7797;51.428;6.756;2023-08-21T17:06:07;3.28;;;2.22;;
15398;SDS011;7797;51.428;6.756;2023-08-21T17:08:34;4.28;;;2.72;;
15398;SDS011;7797;51.428;6.756;2023-08-21T17:11:01;3.00;;;2.20;;
15398;SDS011;7797;51.428;6.756;2023-08-21T17:13:27;5.82;;;2.80;;
15398;SDS011;7797;51.428;6.756;2023-08-21T17:15:55;3.80;;;2.60;;
15398;SDS011;7797;51.428;6.756;2023-08-21T17:18:22;4.50;;;2.60;;
15398;SDS011;7797;51.428;6.756;2023-08-21T17:20:49;3.28;;;2.72;;
15398;SDS011;7797;51.428;6.756;2023-08-21T17:23:18;4.72;;;2.80;;
15398;SDS011;7797;51.428;6.756;2023-08-21T17:25:45;5.00;;;2.70;;
15398;SDS011;7797;51.428;6.756;2023-08-21T17:28:13;3.40;;;2.72;;
15398;SDS011;7797;51.428;6.756;2023-08-21T17:30:40;4.82;;;2.60;;
15398;SDS011;7797;51.428;6.756;2023-08-21T17:33:14;3.10;;;2.65;;
15398;SDS011;7797;51.428;6.756;2023-08-21T17:35:41;3.75;;;2.70;;
15398;SDS011;7797;51.428;6.756;2023-08-21T17:38:07;4.43;;;2.58;;
15398;SDS011;7797;51.428;6.756;2023-08-21T17:40:34;5.90;;;2.55;;
15398;SDS011;7797;51.428;6.756;2023-08-21T17:43:01;3.22;;;2.58;;
15398;SDS011;7797;51.428;6.756;2023-08-21T17:45:29;3.78;;;2.50;;
15398;SDS011;7797;51.428;6.756;2023-08-21T17:47:59;6.28;;;3.08;;
15398;SDS011;7797;51.428;6.756;2023-08-21T17:50:26;4.38;;;2.78;;
15398;SDS011;7797;51.428;6.756;2023-08-21T17:52:55;2.78;;;2.50;;
15398;SDS011;7797;51.428;6.756;2023-08-21T17:55:22;4.75;;;3.10;;
15398;SDS011;7797;51.428;6.756;2023-08-21T17:57:49;2.95;;;2.42;;
15398;SDS011;7797;51.428;6.756;2023-08-21T18:00:19;4.70;;;2.80;;
15398;SDS011;7797;51.428;6.756;2023-08-21T18:02:45;4.63;;;2.63;;
15398;SDS011;7797;51.428;6.756;2023-08-21T18:05:12;5.70;;;3.20;;
15398;SDS011;7797;51.428;6.756;2023-08-21T18:07:39;5.00;;;2.53;;
15398;SDS011;7797;51.428;6.756;2023-08-21T18:10:07;5.93;;;2.63;;
15398;SDS011;7797;51.428;6.756;2023-08-21T18:12:39;5.70;;;2.70;;
15398;SDS011;7797;51.428;6.756;2023-08-21T18:15:07;7.20;;;2.63;;
15398;SDS011;7797;51.428;6.756;2023-08-21T18:17:34;4.55;;;2.70;;
15398;SDS011;7797;51.428;6.756;2023-08-21T18:20:01;5.47;;;3.08;;
15398;SDS011;7797;51.428;6.756;2023-08-21T18:22:29;5.80;;;3.00;;
15398;SDS011;7797;51.428;6.756;2023-08-21T18:24:56;9.65;;;2.85;;
15398;SDS011;7797;51.428;6.756;2023-08-21T18:27:23;4.35;;;2.60;;
15398;SDS011;7797;51.428;6.756;2023-08-21T18:29:49;5.38;;;2.80;;
15398;SDS011;7797;51.428;6.756;2023-08-21T18:32:16;5.47;;;2.88;;
15398;SDS011;7797;51.428;6.756;2023-08-21T18:34:43;5.32;;;2.70;;
15398;SDS011;7797;51.428;6.756;2023-08-21T18:37:10;2.75;;;2.50;;
15398;SDS011;7797;51.428;6.756;2023-08-21T18:39:37;4.43;;;2.75;;
15398;SDS011;7797;51.428;6.756;2023-08-21T18:42:04;4.43;;;2.65;;
15398;SDS011;7797;51.428;6.756;2023-08-21T18:44:31;3.85;;;2.75;;
15398;SDS011;7797;51.428;6.756;2023-08-21T18:46:58;3.95;;;2.85;;
15398;SDS011;7797;51.428;6.756;2023-08-21T18:49:25;3.58;;;2.88;;
15398;SDS011;7797;51.428;6.756;2023-08-21T18:51:52;6.10;;;2.80;;
15398;SDS011;7797;51.428;6.756;2023-08-21T18:54:20;3.75;;;2.90;;
15398;SDS011;7797;51.428;6.756;2023-08-21T18:56:50;4.82;;;2.60;;
15398;SDS011;7797;51.428;6.756;2023-08-21T18:59:18;3.65;;;2.90;;
15398;SDS011;7797;51.428;6.756;2023-08-21T19:01:45;5.10;;;3.08;;
15398;SDS011;7797;51.428;6.756;2023-08-21T19:04:12;5.15;;;3.20;;
15398;SDS011;7797;51.428;6.756;2023-08-21T19:06:38;6.13;;;3.03;;
15398;SDS011;7797;51.428;6.756;2023-08-21T19:09:17;6.47;;;2.90;;
15398;SDS011;7797;51.428;6.756;2023-08-21T19:11:44;4.95;;;3.67;;
15398;SDS011;7797;51.428;6.756;2023-08-21T19:14:10;5.10;;;3.35;;
15398;SDS011;7797;51.428;6.756;2023-08-21T19:16:37;6.30;;;3.20;;
15398;SDS011;7797;51.428;6.756;2023-08-21T19:19:04;4.68;;;3.30;;
15398;SDS011;7797;51.428;6.756;2023-08-21T19:21:31;5.97;;;3.20;;
15398;SDS011;7797;51.428;6.756;2023-08-21T19:23:58;5.38;;;3.80;;
15398;SDS011;7797;51.428;6.756;2023-08-21T19:26:25;4.47;;;3.42;;
15398;SDS011;7797;51.428;6.756;2023-08-21T19:28:52;6.68;;;3.35;;
15398;SDS011;7797;51.428;6.756;2023-08-21T19:31:19;7.20;;;3.45;;
15398;SDS011;7797;51.428;6.756;2023-08-21T19:33:46;4.35;;;3.20;;
15398;SDS011;7797;51.428;6.756;2023-08-21T19:36:13;5.05;;;3.40;;
15398;SDS011;7797;51.428;6.756;2023-08-21T19:38:40;7.32;;;3.45;;
15398;SDS011;7797;51.428;6.756;2023-08-21T19:41:11;5.05;;;3.42;;
15398;SDS011;7797;51.428;6.756;2023-08-21T19:43:41;5.55;;;3.45;;
15398;SDS011;7797;51.428;6.756;2023-08-21T19:46:09;4.45;;;3.42;;
15398;SDS011;7797;51.428;6.756;2023-08-21T19:48:37;5.28;;;3.63;;
15398;SDS011;7797;51.428;6.756;2023-08-21T19:51:04;5.18;;;3.78;;
15398;SDS011;7797;51.428;6.756;2023-08-21T19:53:31;3.92;;;3.53;;
15398;SDS011;7797;51.428;6.756;2023-08-21T19:56:01;4.78;;;3.63;;
15398;SDS011;7797;51.428;6.756;2023-08-21T19:58:30;5.00;;;3.80;;
15398;SDS011;7797;51.428;6.756;2023-08-21T20:00:56;3.72;;;3.20;;
15398;SDS011;7797;51.428;6.756;2023-08-21T20:03:23;7.03;;;3.60;;
15398;SDS011;7797;51.428;6.756;2023-08-21T20:05:58;7.35;;;4.35;;
15398;SDS011;7797;51.428;6.756;2023-08-21T20:08:26;8.18;;;4.57;;
15398;SDS011;7797;51.428;6.756;2023-08-21T20:10:53;6.95;;;4.07;;
15398;SDS011;7797;51.428;6.756;2023-08-21T20:13:20;5.05;;;4.15;;
15398;SDS011;7797;51.428;6.756;2023-08-21T20:15:46;5.20;;;4.20;;
15398;SDS011;7797;51.428;6.756;2023-08-21T20:18:13;6.57;;;4.07;;
15398;SDS011;7797;51.428;6.756;2023-08-21T20:20:44;4.82;;;4.10;;
15398;SDS011;7797;51.428;6.756;2023-08-21T20:23:11;6.80;;;3.90;;
15398;SDS011;7797;51.428;6.756;2023-08-21T20:25:38;5.00;;;3.83;;
15398;SDS011;7797;51.428;6.756;2023-08-21T20:28:07;5.80;;;3.80;;
15398;SDS011;7797;51.428;6.756;2023-08-21T20:30:34;8.45;;;4.35;;
15398;SDS011;7797;51.428;6.756;2023-08-21T20:33:01;7.22;;;4.07;;
15398;SDS011;7797;51.428;6.756;2023-08-21T20:35:28;5.88;;;4.10;;
15398;SDS011;7797;51.428;6.756;2023-08-21T20:37:55;3.90;;;3.58;;
15398;SDS011;7797;51.428;6.756;2023-08-21T20:40:22;5.15;;;3.72;;
15398;SDS011;7797;51.428;6.756;2023-08-21T20:42:49;6.57;;;3.72;;
15398;SDS011;7797;51.428;6.756;2023-08-21T20:45:16;5.55;;;4.40;;
15398;SDS011;7797;51.428;6.756;2023-08-21T20:47:44;5.95;;;4.10;;
15398;SDS011;7797;51.428;6.756;2023-08-21T20:50:11;4.93;;;4.10;;
15398;SDS011;7797;51.428;6.756;2023-08-21T20:52:38;5.47;;;4.18;;
15398;SDS011;7797;51.428;6.756;2023-08-21T20:55:05;4.68;;;3.78;;
15398;SDS011;7797;51.428;6.756;2023-08-21T20:57:33;7.18;;;4.03;;
15398;SDS011;7797;51.428;6.756;2023-08-21T20:59:59;4.40;;;3.67;;
15398;SDS011;7797;51.428;6.756;2023-08-21T21:02:26;4.03;;;3.53;;
15398;SDS011;7797;51.428;6.756;2023-08-21T21:04:53;7.25;;;4.13;;
15398;SDS011;7797;51.428;6.756;2023-08-21T21:07:20;5.03;;;4.10;;
15398;SDS011;7797;51.428;6.756;2023-08-21T21:09:47;5.22;;;3.70;;
15398;SDS011;7797;51.428;6.756;2023-08-21T21:12:14;5.90;;;4.28;;
15398;SDS011;7797;51.428;6.756;2023-08-21T21:14:42;4.93;;;4.30;;
15398;SDS011;7797;51.428;6.756;2023-08-21T21:17:09;5.90;;;4.20;;
15398;SDS011;7797;51.428;6.756;2023-08-21T21:19:36;6.00;;;4.53;;
15398;SDS011;7797;51.428;6.756;2023-08-21T21:22:03;6.95;;;4.40;;
15398;SDS011;7797;51.428;6.756;2023-08-21T21:24:30;5.72;;;4.35;;
15398;SDS011;7797;51.428;6.756;2023-08-21T21:26:56;5.90;;;4.07;;
15398;SDS011;7797;51.428;6.756;2023-08-21T21:29:23;5.20;;;4.00;;
15398;SDS011;7797;51.428;6.756;2023-08-21T21:31:50;5.38;;;4.00;;
15398;SDS011;7797;51.428;6.756;2023-08-21T21:34:17;9.18;;;4.28;;
15398;SDS011;7797;51.428;6.756;2023-08-21T21:36:44;6.40;;;3.88;;
15398;SDS011;7797;51.428;6.756;2023-08-21T21:39:11;5.75;;;4.30;;
15398;SDS011;7797;51.428;6.756;2023-08-21T21:41:39;5.78;;;4.07;;
15398;SDS011;7797;51.428;6.756;2023-08-21T21:44:06;7.13;;;4.20;;
15398;SDS011;7797;51.428;6.756;2023-08-21T21:46:33;6.15;;;4.07;;
15398;SDS011;7797;51.428;6.756;2023-08-21T21:49:00;6.22;;;3.78;;
15398;SDS011;7797;51.428;6.756;2023-08-21T21:51:27;7.55;;;4.15;;
15398;SDS011;7797;51.428;6.756;2023-08-21T21:53:54;6.60;;;4.40;;
15398;SDS011;7797;51.428;6.756;2023-08-21T21:56:25;6.55;;;4.50;;
15398;SDS011;7797;51.428;6.756;2023-08-21T21:58:57;4.38;;;3.90;;
15398;SDS011;7797;51.428;6.756;2023-08-21T22:01:24;7.60;;;4.60;;
15398;SDS011;7797;51.428;6.756;2023-08-21T22:03:51;6.50;;;4.20;;
15398;SDS011;7797;51.428;6.756;2023-08-21T22:06:18;6.05;;;4.22;;
15398;SDS011;7797;51.428;6.756;2023-08-21T22:08:45;5.57;;;4.20;;
15398;SDS011;7797;51.428;6.756;2023-08-21T22:11:12;8.07;;;4.65;;
15398;SDS011;7797;51.428;6.756;2023-08-21T22:13:39;5.68;;;4.07;;
15398;SDS011;7797;51.428;6.756;2023-08-21T22:16:06;5.53;;;4.20;;
15398;SDS011;7797;51.428;6.756;2023-08-21T22:18:33;8.85;;;4.75;;
15398;SDS011;7797;51.428;6.756;2023-08-21T22:21:00;7.88;;;4.18;;
15398;SDS011;7797;51.428;6.756;2023-08-21T22:23:26;5.80;;;4.38;;
15398;SDS011;7797;51.428;6.756;2023-08-21T22:25:53;5.18;;;4.30;;
15398;SDS011;7797;51.428;6.756;2023-08-21T22:28:20;7.35;;;4.10;;
15398;SDS011;7797;51.428;6.756;2023-08-21T22:30:47;6.72;;;4.43;;
15398;SDS011;7797;51.428;6.756;2023-08-21T22:33:13;6.40;;;4.20;;
15398;SDS011;7797;51.428;6.756;2023-08-21T22:35:40;6.55;;;4.13;;
15398;SDS011;7797;51.428;6.756;2023-08-21T22:38:07;9.00;;;4.60;;
15398;SDS011;7797;51.428;6.756;2023-08-21T22:40:34;5.93;;;4.50;;
15398;SDS011;7797;51.428;6.756;2023-08-21T22:43:01;8.27;;;4.32;;
15398;SDS011;7797;51.428;6.756;2023-08-21T22:45:27;6.90;;;4.50;;
15398;SDS011;7797;51.428;6.756;2023-08-21T22:47:54;8.68;;;4.60;;
15398;SDS011;7797;51.428;6.756;2023-08-21T22:50:21;7.75;;;4.57;;
15398;SDS011;7797;51.428;6.756;2023-08-21T22:52:48;6.50;;;4.78;;
15398;SDS011;7797;51.428;6.756;2023-08-21T22:55:15;9.40;;;4.82;;
15398;SDS011;7797;51.428;6.756;2023-08-21T22:57:41;6.10;;;4.82;;
15398;SDS011;7797;51.428;6.756;2023-08-21T23:00:15;7.63;;;4.28;;
15398;SDS011;7797;51.428;6.756;2023-08-21T23:02:42;5.93;;;4.55;;
15398;SDS011;7797;51.428;6.756;2023-08-21T23:05:09;6.43;;;4.53;;
15398;SDS011;7797;51.428;6.756;2023-08-21T23:07:36;7.82;;;5.30;;
15398;SDS011;7797;51.428;6.756;2023-08-21T23:10:04;5.82;;;4.57;;
15398;SDS011;7797;51.428;6.756;2023-08-21T23:12:32;5.32;;;4.72;;
15398;SDS011;7797;51.428;6.756;2023-08-21T23:15:00;5.10;;;4.28;;
15398;SDS011;7797;51.428;6.756;2023-08-21T23:17:26;8.90;;;4.70;;
15398;SDS011;7797;51.428;6.756;2023-08-21T23:19:53;7.43;;;5.18;;
15398;SDS011;7797;51.428;6.756;2023-08-21T23:22:20;5.82;;;4.30;;
15398;SDS011;7797;51.428;6.756;2023-08-21T23:24:47;9.75;;;5.18;;
15398;SDS011;7797;51.428;6.756;2023-08-21T23:27:13;9.88;;;5.10;;
15398;SDS011;7797;51.428;6.756;2023-08-21T23:29:40;8.00;;;4.80;;
15398;SDS011;7797;51.428;6.756;2023-08-21T23:32:07;8.70;;;5.25;;
15398;SDS011;7797;51.428;6.756;2023-08-21T23:34:34;11.95;;;5.40;;
15398;SDS011;7797;51.428;6.756;2023-08-21T23:37:01;6.85;;;5.10;;
15398;SDS011;7797;51.428;6.756;2023-08-21T23:39:28;7.03;;;5.47;;
15398;SDS011;7797;51.428;6.756;2023-08-21T23:41:54;10.95;;;5.72;;
15398;SDS011;7797;51.428;6.756;2023-08-21T23:44:22;9.13;;;6.30;;
15398;SDS011;7797;51.428;6.756;2023-08-21T23:46:48;6.72;;;5.70;;
15398;SDS011;7797;51.428;6.756;2023-08-21T23:49:15;9.15;;;5.82;;
15398;SDS011;7797;51.428;6.756;2023-08-21T23:51:42;6.88;;;5.40;;
15398;SDS011;7797;51.428;6.756;2023-08-21T23:54:09;7.93;;;5.40;;
15398;SDS011;7797;51.428;6.756;2023-08-21T23:56:36;6.50;;;5.10;;
15398;SDS011;7797;51.428;6.756;2023-08-21T23:59:02;9.52;;;5.18;;
